sensor_id;sensor_type;location;lat;lon;timestamp;P1;durP1;ratioP1;P2;durP2;ratioP2
20114;SDS011;10218;42.874;25.320;2023-02-21T00:02:37;16.10;;;8.80;;
20114;SDS011;10218;42.874;25.320;2023-02-21T00:05:25;19.27;;;10.60;;
20114;SDS011;10218;42.874;25.320;2023-02-21T00:08:12;18.50;;;9.10;;
20114;SDS011;10218;42.874;25.320;2023-02-21T00:10:58;20.00;;;9.50;;
20114;SDS011;10218;42.874;25.320;2023-02-21T00:13:46;17.97;;;10.13;;
20114;SDS011;10218;42.874;25.320;2023-02-21T00:16:33;14.03;;;8.10;;
20114;SDS011;10218;42.874;25.320;2023-02-21T00:19:19;17.53;;;9.93;;
20114;SDS011;10218;42.874;25.320;2023-02-21T00:22:05;17.73;;;9.93;;
20114;SDS011;10218;42.874;25.320;2023-02-21T00:24:53;20.57;;;10.40;;
20114;SDS011;10218;42.874;25.320;2023-02-21T00:27:40;19.07;;;10.23;;
20114;SDS011;10218;42.874;25.320;2023-02-21T00:30:26;18.13;;;10.30;;
20114;SDS011;10218;42.874;25.320;2023-02-21T00:33:12;21.93;;;12.10;;
20114;SDS011;10218;42.874;25.320;2023-02-21T00:35:59;24.87;;;12.20;;
20114;SDS011;10218;42.874;25.320;2023-02-21T00:38:45;24.50;;;12.57;;
20114;SDS011;10218;42.874;25.320;2023-02-21T00:41:32;22.53;;;11.67;;
20114;SDS011;10218;42.874;25.320;2023-02-21T00:44:20;26.30;;;13.73;;
20114;SDS011;10218;42.874;25.320;2023-02-21T00:47:06;26.30;;;12.77;;
20114;SDS011;10218;42.874;25.320;2023-02-21T00:49:54;23.70;;;13.23;;
20114;SDS011;10218;42.874;25.320;2023-02-21T00:52:40;23.57;;;13.67;;
20114;SDS011;10218;42.874;25.320;2023-02-21T00:55:27;27.47;;;13.53;;
20114;SDS011;10218;42.874;25.320;2023-02-21T00:58:13;25.00;;;14.10;;
20114;SDS011;10218;42.874;25.320;2023-02-21T01:01:00;27.00;;;13.67;;
20114;SDS011;10218;42.874;25.320;2023-02-21T01:03:46;26.43;;;14.20;;
20114;SDS011;10218;42.874;25.320;2023-02-21T01:06:34;35.17;;;18.23;;
20114;SDS011;10218;42.874;25.320;2023-02-21T01:09:21;39.07;;;18.30;;
20114;SDS011;10218;42.874;25.320;2023-02-21T01:12:07;36.23;;;18.63;;
20114;SDS011;10218;42.874;25.320;2023-02-21T01:14:54;35.23;;;18.27;;
20114;SDS011;10218;42.874;25.320;2023-02-21T01:17:42;52.37;;;25.27;;
20114;SDS011;10218;42.874;25.320;2023-02-21T01:20:27;35.30;;;18.03;;
20114;SDS011;10218;42.874;25.320;2023-02-21T01:23:13;30.33;;;16.07;;
20114;SDS011;10218;42.874;25.320;2023-02-21T01:26:00;33.13;;;17.00;;
20114;SDS011;10218;42.874;25.320;2023-02-21T01:28:46;31.80;;;16.90;;
20114;SDS011;10218;42.874;25.320;2023-02-21T01:31:32;33.77;;;16.73;;
20114;SDS011;10218;42.874;25.320;2023-02-21T01:34:18;34.20;;;16.83;;
20114;SDS011;10218;42.874;25.320;2023-02-21T01:37:04;31.13;;;15.43;;
20114;SDS011;10218;42.874;25.320;2023-02-21T01:39:50;28.10;;;15.57;;
20114;SDS011;10218;42.874;25.320;2023-02-21T01:42:36;28.47;;;14.30;;
20114;SDS011;10218;42.874;25.320;2023-02-21T01:48:12;19.90;;;10.97;;
20114;SDS011;10218;42.874;25.320;2023-02-21T01:51:02;22.53;;;11.30;;
20114;SDS011;10218;42.874;25.320;2023-02-21T01:53:51;39.03;;;21.03;;
20114;SDS011;10218;42.874;25.320;2023-02-21T01:56:40;27.50;;;12.50;;
20114;SDS011;10218;42.874;25.320;2023-02-21T01:59:26;18.73;;;9.60;;
20114;SDS011;10218;42.874;25.320;2023-02-21T02:02:17;19.37;;;10.40;;
20114;SDS011;10218;42.874;25.320;2023-02-21T02:05:13;14.70;;;8.13;;
20114;SDS011;10218;42.874;25.320;2023-02-21T02:07:59;18.10;;;9.33;;
20114;SDS011;10218;42.874;25.320;2023-02-21T02:10:45;18.10;;;10.73;;
20114;SDS011;10218;42.874;25.320;2023-02-21T02:14:06;18.50;;;9.07;;
20114;SDS011;10218;42.874;25.320;2023-02-21T02:16:42;13.90;;;8.27;;
20114;SDS011;10218;42.874;25.320;2023-02-21T02:28:29;29.03;;;15.10;;
20114;SDS011;10218;42.874;25.320;2023-02-21T02:36:20;15.07;;;6.80;;
20114;SDS011;10218;42.874;25.320;2023-02-21T02:39:08;10.87;;;5.67;;
20114;SDS011;10218;42.874;25.320;2023-02-21T02:42:15;11.70;;;5.80;;
20114;SDS011;10218;42.874;25.320;2023-02-21T02:44:52;13.50;;;7.20;;
20114;SDS011;10218;42.874;25.320;2023-02-21T02:47:35;11.00;;;5.77;;
20114;SDS011;10218;42.874;25.320;2023-02-21T02:50:06;10.50;;;5.93;;
20114;SDS011;10218;42.874;25.320;2023-02-21T02:52:35;11.57;;;6.27;;
20114;SDS011;10218;42.874;25.320;2023-02-21T02:55:19;12.47;;;5.27;;
20114;SDS011;10218;42.874;25.320;2023-02-21T02:58:12;12.10;;;5.30;;
20114;SDS011;10218;42.874;25.320;2023-02-21T03:00:41;11.30;;;5.83;;
20114;SDS011;10218;42.874;25.320;2023-02-21T03:03:33;11.80;;;6.17;;
20114;SDS011;10218;42.874;25.320;2023-02-21T03:06:32;14.43;;;5.80;;
20114;SDS011;10218;42.874;25.320;2023-02-21T03:09:08;10.03;;;5.83;;
20114;SDS011;10218;42.874;25.320;2023-02-21T03:11:54;11.83;;;6.37;;
20114;SDS011;10218;42.874;25.320;2023-02-21T03:14:24;13.37;;;6.70;;
20114;SDS011;10218;42.874;25.320;2023-02-21T03:16:56;12.50;;;6.57;;
20114;SDS011;10218;42.874;25.320;2023-02-21T03:19:33;15.33;;;8.27;;
20114;SDS011;10218;42.874;25.320;2023-02-21T03:22:08;15.10;;;7.10;;
20114;SDS011;10218;42.874;25.320;2023-02-21T03:24:41;14.93;;;7.17;;
20114;SDS011;10218;42.874;25.320;2023-02-21T03:27:14;15.23;;;7.77;;
20114;SDS011;10218;42.874;25.320;2023-02-21T03:29:44;14.70;;;7.40;;
20114;SDS011;10218;42.874;25.320;2023-02-21T03:32:16;19.50;;;8.27;;
20114;SDS011;10218;42.874;25.320;2023-02-21T03:34:49;15.57;;;7.80;;
20114;SDS011;10218;42.874;25.320;2023-02-21T03:37:21;11.57;;;6.87;;
20114;SDS011;10218;42.874;25.320;2023-02-21T03:40:01;12.30;;;7.00;;
20114;SDS011;10218;42.874;25.320;2023-02-21T03:42:32;16.07;;;8.13;;
20114;SDS011;10218;42.874;25.320;2023-02-21T03:45:01;16.00;;;7.43;;
20114;SDS011;10218;42.874;25.320;2023-02-21T03:47:28;14.67;;;7.47;;
20114;SDS011;10218;42.874;25.320;2023-02-21T03:49:57;18.00;;;9.57;;
20114;SDS011;10218;42.874;25.320;2023-02-21T03:52:25;16.77;;;8.90;;
20114;SDS011;10218;42.874;25.320;2023-02-21T03:54:52;15.67;;;8.33;;
20114;SDS011;10218;42.874;25.320;2023-02-21T03:57:19;14.13;;;7.83;;
20114;SDS011;10218;42.874;25.320;2023-02-21T03:59:48;20.13;;;9.93;;
20114;SDS011;10218;42.874;25.320;2023-02-21T04:02:16;18.47;;;10.13;;
20114;SDS011;10218;42.874;25.320;2023-02-21T04:04:45;13.80;;;6.63;;
20114;SDS011;10218;42.874;25.320;2023-02-21T04:07:17;11.97;;;7.07;;
20114;SDS011;10218;42.874;25.320;2023-02-21T04:09:48;12.90;;;7.10;;
20114;SDS011;10218;42.874;25.320;2023-02-21T04:12:16;11.03;;;6.93;;
20114;SDS011;10218;42.874;25.320;2023-02-21T04:14:43;15.57;;;8.10;;
20114;SDS011;10218;42.874;25.320;2023-02-21T04:17:11;15.60;;;8.83;;
20114;SDS011;10218;42.874;25.320;2023-02-21T04:19:41;21.93;;;10.43;;
20114;SDS011;10218;42.874;25.320;2023-02-21T04:22:08;24.87;;;12.67;;
20114;SDS011;10218;42.874;25.320;2023-02-21T04:24:36;32.33;;;14.90;;
20114;SDS011;10218;42.874;25.320;2023-02-21T04:27:03;31.47;;;14.63;;
20114;SDS011;10218;42.874;25.320;2023-02-21T04:29:31;29.57;;;14.50;;
20114;SDS011;10218;42.874;25.320;2023-02-21T04:31:59;34.17;;;15.33;;
20114;SDS011;10218;42.874;25.320;2023-02-21T04:34:29;37.50;;;14.20;;
20114;SDS011;10218;42.874;25.320;2023-02-21T04:36:56;26.93;;;13.73;;
20114;SDS011;10218;42.874;25.320;2023-02-21T04:39:24;26.03;;;11.83;;
20114;SDS011;10218;42.874;25.320;2023-02-21T04:41:51;27.73;;;12.70;;
20114;SDS011;10218;42.874;25.320;2023-02-21T04:44:18;29.83;;;13.47;;
20114;SDS011;10218;42.874;25.320;2023-02-21T04:46:45;30.33;;;13.90;;
20114;SDS011;10218;42.874;25.320;2023-02-21T04:49:14;36.07;;;17.73;;
20114;SDS011;10218;42.874;25.320;2023-02-21T04:51:41;28.27;;;14.03;;
20114;SDS011;10218;42.874;25.320;2023-02-21T04:54:10;32.37;;;17.23;;
20114;SDS011;10218;42.874;25.320;2023-02-21T04:56:39;36.37;;;18.47;;
20114;SDS011;10218;42.874;25.320;2023-02-21T04:59:06;28.43;;;15.70;;
20114;SDS011;10218;42.874;25.320;2023-02-21T05:01:33;28.43;;;15.80;;
20114;SDS011;10218;42.874;25.320;2023-02-21T05:04:00;24.83;;;12.80;;
20114;SDS011;10218;42.874;25.320;2023-02-21T05:06:29;21.93;;;12.03;;
20114;SDS011;10218;42.874;25.320;2023-02-21T05:08:57;24.97;;;13.27;;
20114;SDS011;10218;42.874;25.320;2023-02-21T05:11:26;24.67;;;11.97;;
20114;SDS011;10218;42.874;25.320;2023-02-21T05:13:53;27.00;;;13.50;;
20114;SDS011;10218;42.874;25.320;2023-02-21T05:16:20;28.50;;;13.10;;
20114;SDS011;10218;42.874;25.320;2023-02-21T05:18:47;25.03;;;13.77;;
20114;SDS011;10218;42.874;25.320;2023-02-21T05:21:15;24.43;;;13.10;;
20114;SDS011;10218;42.874;25.320;2023-02-21T05:23:44;25.50;;;13.27;;
20114;SDS011;10218;42.874;25.320;2023-02-21T05:26:26;35.23;;;15.73;;
20114;SDS011;10218;42.874;25.320;2023-02-21T05:28:59;29.77;;;15.63;;
20114;SDS011;10218;42.874;25.320;2023-02-21T05:31:27;41.23;;;18.87;;
20114;SDS011;10218;42.874;25.320;2023-02-21T05:33:55;33.20;;;17.97;;
20114;SDS011;10218;42.874;25.320;2023-02-21T05:36:23;30.07;;;15.77;;
20114;SDS011;10218;42.874;25.320;2023-02-21T05:38:53;32.20;;;16.63;;
20114;SDS011;10218;42.874;25.320;2023-02-21T05:41:24;29.70;;;16.03;;
20114;SDS011;10218;42.874;25.320;2023-02-21T05:43:51;40.03;;;19.43;;
20114;SDS011;10218;42.874;25.320;2023-02-21T05:46:26;35.87;;;19.00;;
20114;SDS011;10218;42.874;25.320;2023-02-21T05:48:57;66.63;;;31.10;;
20114;SDS011;10218;42.874;25.320;2023-02-21T05:51:26;48.13;;;24.83;;
20114;SDS011;10218;42.874;25.320;2023-02-21T05:53:56;87.40;;;37.53;;
20114;SDS011;10218;42.874;25.320;2023-02-21T05:56:24;58.03;;;26.73;;
20114;SDS011;10218;42.874;25.320;2023-02-21T05:58:53;60.20;;;28.63;;
20114;SDS011;10218;42.874;25.320;2023-02-21T06:01:20;57.33;;;29.10;;
20114;SDS011;10218;42.874;25.320;2023-02-21T06:03:48;63.90;;;29.57;;
20114;SDS011;10218;42.874;25.320;2023-02-21T06:06:15;52.40;;;26.87;;
20114;SDS011;10218;42.874;25.320;2023-02-21T06:08:45;51.40;;;26.80;;
20114;SDS011;10218;42.874;25.320;2023-02-21T06:11:13;51.67;;;24.70;;
20114;SDS011;10218;42.874;25.320;2023-02-21T06:13:42;46.90;;;26.53;;
20114;SDS011;10218;42.874;25.320;2023-02-21T06:16:10;51.27;;;27.37;;
20114;SDS011;10218;42.874;25.320;2023-02-21T06:18:38;63.00;;;30.90;;
20114;SDS011;10218;42.874;25.320;2023-02-21T06:21:05;51.43;;;26.73;;
20114;SDS011;10218;42.874;25.320;2023-02-21T06:23:32;53.93;;;26.63;;
20114;SDS011;10218;42.874;25.320;2023-02-21T06:25:59;58.43;;;31.63;;
20114;SDS011;10218;42.874;25.320;2023-02-21T06:28:30;112.47;;;57.50;;
20114;SDS011;10218;42.874;25.320;2023-02-21T06:30:57;59.03;;;32.43;;
20114;SDS011;10218;42.874;25.320;2023-02-21T06:33:25;92.60;;;41.80;;
20114;SDS011;10218;42.874;25.320;2023-02-21T06:35:52;72.33;;;34.33;;
20114;SDS011;10218;42.874;25.320;2023-02-21T06:38:19;68.20;;;36.13;;
20114;SDS011;10218;42.874;25.320;2023-02-21T06:40:47;71.97;;;35.80;;
20114;SDS011;10218;42.874;25.320;2023-02-21T06:43:14;71.30;;;34.60;;
20114;SDS011;10218;42.874;25.320;2023-02-21T06:45:41;101.80;;;50.03;;
20114;SDS011;10218;42.874;25.320;2023-02-21T06:48:12;79.60;;;39.37;;
20114;SDS011;10218;42.874;25.320;2023-02-21T06:50:40;91.33;;;44.77;;
20114;SDS011;10218;42.874;25.320;2023-02-21T06:53:09;73.47;;;37.20;;
20114;SDS011;10218;42.874;25.320;2023-02-21T06:55:37;62.23;;;31.93;;
20114;SDS011;10218;42.874;25.320;2023-02-21T06:58:04;66.57;;;34.13;;
20114;SDS011;10218;42.874;25.320;2023-02-21T07:00:32;80.37;;;39.87;;
20114;SDS011;10218;42.874;25.320;2023-02-21T07:02:59;93.37;;;48.63;;
20114;SDS011;10218;42.874;25.320;2023-02-21T07:05:27;56.80;;;30.77;;
20114;SDS011;10218;42.874;25.320;2023-02-21T07:07:55;71.50;;;35.40;;
20114;SDS011;10218;42.874;25.320;2023-02-21T07:10:22;79.33;;;38.43;;
20114;SDS011;10218;42.874;25.320;2023-02-21T07:12:49;99.37;;;48.20;;
20114;SDS011;10218;42.874;25.320;2023-02-21T07:15:17;76.30;;;40.83;;
20114;SDS011;10218;42.874;25.320;2023-02-21T07:17:44;87.67;;;44.77;;
20114;SDS011;10218;42.874;25.320;2023-02-21T07:20:11;80.00;;;42.10;;
20114;SDS011;10218;42.874;25.320;2023-02-21T07:22:39;92.40;;;43.07;;
20114;SDS011;10218;42.874;25.320;2023-02-21T07:25:06;78.43;;;39.63;;
20114;SDS011;10218;42.874;25.320;2023-02-21T07:27:34;77.17;;;41.53;;
20114;SDS011;10218;42.874;25.320;2023-02-21T07:30:01;163.53;;;75.10;;
20114;SDS011;10218;42.874;25.320;2023-02-21T07:32:28;160.10;;;72.77;;
20114;SDS011;10218;42.874;25.320;2023-02-21T07:34:56;146.47;;;67.93;;
20114;SDS011;10218;42.874;25.320;2023-02-21T07:37:24;176.70;;;78.17;;
20114;SDS011;10218;42.874;25.320;2023-02-21T07:39:52;95.17;;;47.90;;
20114;SDS011;10218;42.874;25.320;2023-02-21T07:42:20;146.80;;;68.90;;
20114;SDS011;10218;42.874;25.320;2023-02-21T07:44:47;162.60;;;75.70;;
20114;SDS011;10218;42.874;25.320;2023-02-21T07:47:14;137.67;;;67.80;;
20114;SDS011;10218;42.874;25.320;2023-02-21T07:49:44;94.60;;;46.87;;
20114;SDS011;10218;42.874;25.320;2023-02-21T07:52:11;114.13;;;57.70;;
20114;SDS011;10218;42.874;25.320;2023-02-21T07:54:40;138.93;;;68.00;;
20114;SDS011;10218;42.874;25.320;2023-02-21T07:57:07;151.07;;;76.13;;
20114;SDS011;10218;42.874;25.320;2023-02-21T07:59:35;119.17;;;63.13;;
20114;SDS011;10218;42.874;25.320;2023-02-21T08:02:03;113.13;;;58.83;;
20114;SDS011;10218;42.874;25.320;2023-02-21T08:04:31;100.40;;;50.80;;
20114;SDS011;10218;42.874;25.320;2023-02-21T08:06:59;117.03;;;60.03;;
20114;SDS011;10218;42.874;25.320;2023-02-21T08:09:27;124.73;;;68.37;;
20114;SDS011;10218;42.874;25.320;2023-02-21T08:11:55;121.77;;;63.87;;
20114;SDS011;10218;42.874;25.320;2023-02-21T08:14:24;116.63;;;60.87;;
20114;SDS011;10218;42.874;25.320;2023-02-21T08:16:51;112.60;;;54.00;;
20114;SDS011;10218;42.874;25.320;2023-02-21T08:19:18;102.17;;;54.33;;
20114;SDS011;10218;42.874;25.320;2023-02-21T08:21:46;112.70;;;60.13;;
20114;SDS011;10218;42.874;25.320;2023-02-21T08:24:14;116.67;;;63.10;;
20114;SDS011;10218;42.874;25.320;2023-02-21T08:26:42;125.40;;;65.07;;
20114;SDS011;10218;42.874;25.320;2023-02-21T08:29:11;116.37;;;63.10;;
20114;SDS011;10218;42.874;25.320;2023-02-21T08:31:40;110.57;;;60.47;;
20114;SDS011;10218;42.874;25.320;2023-02-21T08:34:08;115.83;;;61.83;;
20114;SDS011;10218;42.874;25.320;2023-02-21T08:36:37;123.60;;;68.53;;
20114;SDS011;10218;42.874;25.320;2023-02-21T08:39:07;140.93;;;83.20;;
20114;SDS011;10218;42.874;25.320;2023-02-21T08:41:45;117.97;;;64.47;;
20114;SDS011;10218;42.874;25.320;2023-02-21T08:44:16;115.67;;;64.00;;
20114;SDS011;10218;42.874;25.320;2023-02-21T08:46:44;118.03;;;67.50;;
20114;SDS011;10218;42.874;25.320;2023-02-21T08:49:14;120.30;;;66.37;;
20114;SDS011;10218;42.874;25.320;2023-02-21T08:51:43;126.03;;;61.63;;
20114;SDS011;10218;42.874;25.320;2023-02-21T08:54:11;100.90;;;55.67;;
20114;SDS011;10218;42.874;25.320;2023-02-21T08:56:39;113.90;;;61.73;;
20114;SDS011;10218;42.874;25.320;2023-02-21T08:59:06;108.13;;;59.60;;
20114;SDS011;10218;42.874;25.320;2023-02-21T09:01:35;97.47;;;53.67;;
20114;SDS011;10218;42.874;25.320;2023-02-21T09:04:03;128.60;;;67.63;;
20114;SDS011;10218;42.874;25.320;2023-02-21T09:06:32;80.17;;;44.63;;
20114;SDS011;10218;42.874;25.320;2023-02-21T09:09:00;123.87;;;61.50;;
20114;SDS011;10218;42.874;25.320;2023-02-21T09:11:28;154.80;;;65.20;;
20114;SDS011;10218;42.874;25.320;2023-02-21T09:13:55;116.23;;;58.67;;
20114;SDS011;10218;42.874;25.320;2023-02-21T09:16:25;128.60;;;64.90;;
20114;SDS011;10218;42.874;25.320;2023-02-21T09:18:54;95.23;;;52.93;;
20114;SDS011;10218;42.874;25.320;2023-02-21T09:21:26;123.87;;;65.97;;
20114;SDS011;10218;42.874;25.320;2023-02-21T09:23:54;73.10;;;38.37;;
20114;SDS011;10218;42.874;25.320;2023-02-21T09:26:22;60.70;;;32.30;;
20114;SDS011;10218;42.874;25.320;2023-02-21T09:28:51;85.87;;;46.77;;
20114;SDS011;10218;42.874;25.320;2023-02-21T09:31:20;79.53;;;39.40;;
20114;SDS011;10218;42.874;25.320;2023-02-21T09:33:47;64.37;;;33.17;;
20114;SDS011;10218;42.874;25.320;2023-02-21T09:36:15;72.07;;;38.13;;
20114;SDS011;10218;42.874;25.320;2023-02-21T09:38:49;71.47;;;38.90;;
20114;SDS011;10218;42.874;25.320;2023-02-21T09:41:17;78.70;;;38.70;;
20114;SDS011;10218;42.874;25.320;2023-02-21T09:43:47;75.70;;;41.77;;
20114;SDS011;10218;42.874;25.320;2023-02-21T09:48:46;36.50;;;19.90;;
20114;SDS011;10218;42.874;25.320;2023-02-21T09:51:14;35.87;;;20.17;;
20114;SDS011;10218;42.874;25.320;2023-02-21T09:53:45;45.63;;;19.13;;
20114;SDS011;10218;42.874;25.320;2023-02-21T09:56:27;34.93;;;18.57;;
20114;SDS011;10218;42.874;25.320;2023-02-21T09:58:55;39.57;;;20.03;;
20114;SDS011;10218;42.874;25.320;2023-02-21T10:04:45;21.23;;;7.53;;
20114;SDS011;10218;42.874;25.320;2023-02-21T10:07:21;23.57;;;9.47;;
20114;SDS011;10218;42.874;25.320;2023-02-21T10:09:54;24.30;;;9.30;;
20114;SDS011;10218;42.874;25.320;2023-02-21T10:12:46;22.73;;;10.77;;
20114;SDS011;10218;42.874;25.320;2023-02-21T10:15:38;35.90;;;16.50;;
20114;SDS011;10218;42.874;25.320;2023-02-21T10:21:16;37.13;;;10.27;;
20114;SDS011;10218;42.874;25.320;2023-02-21T10:23:55;7.67;;;2.70;;
20114;SDS011;10218;42.874;25.320;2023-02-21T10:26:36;14.10;;;3.57;;
20114;SDS011;10218;42.874;25.320;2023-02-21T10:29:22;6.33;;;2.80;;
20114;SDS011;10218;42.874;25.320;2023-02-21T10:31:56;7.60;;;2.67;;
20114;SDS011;10218;42.874;25.320;2023-02-21T10:34:29;5.40;;;1.80;;
20114;SDS011;10218;42.874;25.320;2023-02-21T10:37:22;6.47;;;1.80;;
20114;SDS011;10218;42.874;25.320;2023-02-21T10:43:01;3.87;;;1.87;;
20114;SDS011;10218;42.874;25.320;2023-02-21T10:45:38;4.10;;;1.67;;
20114;SDS011;10218;42.874;25.320;2023-02-21T10:48:12;6.20;;;1.67;;
20114;SDS011;10218;42.874;25.320;2023-02-21T10:50:44;7.93;;;2.23;;
20114;SDS011;10218;42.874;25.320;2023-02-21T10:53:29;7.67;;;2.13;;
20114;SDS011;10218;42.874;25.320;2023-02-21T10:56:05;5.60;;;1.60;;
20114;SDS011;10218;42.874;25.320;2023-02-21T11:01:19;3.80;;;1.30;;
20114;SDS011;10218;42.874;25.320;2023-02-21T11:03:59;3.53;;;1.57;;
20114;SDS011;10218;42.874;25.320;2023-02-21T11:09:47;10.07;;;1.40;;
20114;SDS011;10218;42.874;25.320;2023-02-21T11:17:27;3.27;;;1.70;;
20114;SDS011;10218;42.874;25.320;2023-02-21T11:22:41;3.30;;;1.30;;
20114;SDS011;10218;42.874;25.320;2023-02-21T11:27:37;3.30;;;1.47;;
20114;SDS011;10218;42.874;25.320;2023-02-21T11:30:24;3.90;;;1.70;;
20114;SDS011;10218;42.874;25.320;2023-02-21T11:32:54;4.57;;;1.30;;
20114;SDS011;10218;42.874;25.320;2023-02-21T11:35:25;1.17;;;0.90;;
20114;SDS011;10218;42.874;25.320;2023-02-21T11:37:56;3.73;;;1.17;;
20114;SDS011;10218;42.874;25.320;2023-02-21T11:40:33;2.57;;;1.30;;
20114;SDS011;10218;42.874;25.320;2023-02-21T11:43:16;6.03;;;1.73;;
20114;SDS011;10218;42.874;25.320;2023-02-21T11:52:24;4.43;;;1.00;;
20114;SDS011;10218;42.874;25.320;2023-02-21T11:54:25;3.70;;;1.03;;
20114;SDS011;10218;42.874;25.320;2023-02-21T11:57:08;7.57;;;2.07;;
20114;SDS011;10218;42.874;25.320;2023-02-21T12:17:50;1.77;;;0.90;;
20114;SDS011;10218;42.874;25.320;2023-02-21T12:34:43;3.73;;;1.40;;
20114;SDS011;10218;42.874;25.320;2023-02-21T12:37:19;2.20;;;1.30;;
20114;SDS011;10218;42.874;25.320;2023-02-21T12:51:05;3.07;;;0.93;;
20114;SDS011;10218;42.874;25.320;2023-02-21T12:54:20;7.37;;;1.50;;
20114;SDS011;10218;42.874;25.320;2023-02-21T12:56:50;4.10;;;1.33;;
20114;SDS011;10218;42.874;25.320;2023-02-21T12:59:24;2.40;;;1.23;;
20114;SDS011;10218;42.874;25.320;2023-02-21T13:02:07;2.13;;;1.40;;
20114;SDS011;10218;42.874;25.320;2023-02-21T13:04:49;9.90;;;1.60;;
20114;SDS011;10218;42.874;25.320;2023-02-21T13:10:12;7.70;;;1.10;;
20114;SDS011;10218;42.874;25.320;2023-02-21T13:15:28;3.40;;;1.40;;
20114;SDS011;10218;42.874;25.320;2023-02-21T13:20:35;5.00;;;1.53;;
20114;SDS011;10218;42.874;25.320;2023-02-21T13:29:40;3.97;;;1.63;;
20114;SDS011;10218;42.874;25.320;2023-02-21T13:32:11;9.27;;;2.27;;
20114;SDS011;10218;42.874;25.320;2023-02-21T13:34:44;2.20;;;1.50;;
20114;SDS011;10218;42.874;25.320;2023-02-21T13:37:23;5.30;;;1.50;;
20114;SDS011;10218;42.874;25.320;2023-02-21T13:39:58;10.57;;;6.40;;
20114;SDS011;10218;42.874;25.320;2023-02-21T13:42:35;12.20;;;2.30;;
20114;SDS011;10218;42.874;25.320;2023-02-21T13:55:39;4.47;;;2.20;;
20114;SDS011;10218;42.874;25.320;2023-02-21T14:00:47;10.63;;;2.10;;
20114;SDS011;10218;42.874;25.320;2023-02-21T14:08:28;5.53;;;1.93;;
20114;SDS011;10218;42.874;25.320;2023-02-21T14:11:19;10.50;;;2.43;;
20114;SDS011;10218;42.874;25.320;2023-02-21T14:13:55;4.17;;;1.80;;
20114;SDS011;10218;42.874;25.320;2023-02-21T14:16:36;7.27;;;2.10;;
20114;SDS011;10218;42.874;25.320;2023-02-21T14:19:35;8.67;;;2.10;;
20114;SDS011;10218;42.874;25.320;2023-02-21T14:24:44;5.67;;;1.20;;
20114;SDS011;10218;42.874;25.320;2023-02-21T14:29:43;3.27;;;2.10;;
20114;SDS011;10218;42.874;25.320;2023-02-21T14:37:22;7.20;;;3.00;;
20114;SDS011;10218;42.874;25.320;2023-02-21T14:40:11;9.97;;;4.70;;
20114;SDS011;10218;42.874;25.320;2023-02-21T14:43:06;9.30;;;2.20;;
20114;SDS011;10218;42.874;25.320;2023-02-21T14:59:21;5.40;;;2.13;;
20114;SDS011;10218;42.874;25.320;2023-02-21T15:04:40;5.20;;;3.00;;
20114;SDS011;10218;42.874;25.320;2023-02-21T15:12:55;29.13;;;11.33;;
20114;SDS011;10218;42.874;25.320;2023-02-21T15:15:26;15.37;;;5.47;;
20114;SDS011;10218;42.874;25.320;2023-02-21T15:18:03;16.63;;;7.27;;
20114;SDS011;10218;42.874;25.320;2023-02-21T15:20:34;10.53;;;4.37;;
20114;SDS011;10218;42.874;25.320;2023-02-21T15:23:17;14.13;;;4.60;;
20114;SDS011;10218;42.874;25.320;2023-02-21T15:25:56;20.70;;;8.00;;
20114;SDS011;10218;42.874;25.320;2023-02-21T15:28:26;31.70;;;11.03;;
20114;SDS011;10218;42.874;25.320;2023-02-21T15:30:57;31.67;;;11.97;;
20114;SDS011;10218;42.874;25.320;2023-02-21T15:33:38;24.03;;;9.10;;
20114;SDS011;10218;42.874;25.320;2023-02-21T15:36:08;25.77;;;11.20;;
20114;SDS011;10218;42.874;25.320;2023-02-21T15:38:41;25.90;;;11.20;;
20114;SDS011;10218;42.874;25.320;2023-02-21T15:41:26;24.73;;;11.00;;
20114;SDS011;10218;42.874;25.320;2023-02-21T15:46:31;38.50;;;13.67;;
20114;SDS011;10218;42.874;25.320;2023-02-21T15:49:06;27.37;;;10.50;;
20114;SDS011;10218;42.874;25.320;2023-02-21T15:51:40;48.53;;;17.17;;
20114;SDS011;10218;42.874;25.320;2023-02-21T15:54:22;36.30;;;16.63;;
20114;SDS011;10218;42.874;25.320;2023-02-21T15:59:37;53.43;;;21.20;;
20114;SDS011;10218;42.874;25.320;2023-02-21T16:04:45;56.70;;;22.90;;
20114;SDS011;10218;42.874;25.320;2023-02-21T16:07:15;59.43;;;25.97;;
20114;SDS011;10218;42.874;25.320;2023-02-21T16:10:02;56.80;;;32.23;;
20114;SDS011;10218;42.874;25.320;2023-02-21T16:15:26;85.07;;;34.50;;
20114;SDS011;10218;42.874;25.320;2023-02-21T16:17:58;58.50;;;30.53;;
20114;SDS011;10218;42.874;25.320;2023-02-21T16:20:38;68.57;;;34.87;;
20114;SDS011;10218;42.874;25.320;2023-02-21T16:23:21;96.87;;;43.53;;
20114;SDS011;10218;42.874;25.320;2023-02-21T16:28:41;307.73;;;118.47;;
20114;SDS011;10218;42.874;25.320;2023-02-21T16:31:14;98.77;;;44.90;;
20114;SDS011;10218;42.874;25.320;2023-02-21T16:33:49;126.57;;;56.07;;
20114;SDS011;10218;42.874;25.320;2023-02-21T16:36:35;151.67;;;65.13;;
20114;SDS011;10218;42.874;25.320;2023-02-21T16:39:04;96.07;;;43.27;;
20114;SDS011;10218;42.874;25.320;2023-02-21T16:41:31;329.13;;;173.00;;
20114;SDS011;10218;42.874;25.320;2023-02-21T16:43:58;272.03;;;122.07;;
20114;SDS011;10218;42.874;25.320;2023-02-21T16:46:26;91.13;;;44.97;;
20114;SDS011;10218;42.874;25.320;2023-02-21T16:48:56;129.83;;;62.83;;
20114;SDS011;10218;42.874;25.320;2023-02-21T16:51:24;115.83;;;59.10;;
20114;SDS011;10218;42.874;25.320;2023-02-21T16:53:59;1069.03;;;676.30;;
20114;SDS011;10218;42.874;25.320;2023-02-21T16:56:27;156.97;;;78.50;;
20114;SDS011;10218;42.874;25.320;2023-02-21T16:58:54;191.00;;;95.10;;
20114;SDS011;10218;42.874;25.320;2023-02-21T17:01:24;1690.73;;;857.87;;
20114;SDS011;10218;42.874;25.320;2023-02-21T17:03:57;849.53;;;435.00;;
20114;SDS011;10218;42.874;25.320;2023-02-21T17:06:25;379.83;;;165.23;;
20114;SDS011;10218;42.874;25.320;2023-02-21T17:08:54;345.43;;;146.13;;
20114;SDS011;10218;42.874;25.320;2023-02-21T17:11:22;1449.27;;;705.90;;
20114;SDS011;10218;42.874;25.320;2023-02-21T17:13:49;1965.97;;;861.77;;
20114;SDS011;10218;42.874;25.320;2023-02-21T17:16:17;761.60;;;371.63;;
20114;SDS011;10218;42.874;25.320;2023-02-21T17:18:44;1064.10;;;551.37;;
20114;SDS011;10218;42.874;25.320;2023-02-21T17:21:13;441.73;;;202.40;;
20114;SDS011;10218;42.874;25.320;2023-02-21T17:23:44;489.83;;;220.00;;
20114;SDS011;10218;42.874;25.320;2023-02-21T17:26:15;874.87;;;500.20;;
20114;SDS011;10218;42.874;25.320;2023-02-21T17:28:42;888.30;;;549.57;;
20114;SDS011;10218;42.874;25.320;2023-02-21T17:31:13;178.57;;;89.50;;
20114;SDS011;10218;42.874;25.320;2023-02-21T17:33:44;149.83;;;78.60;;
20114;SDS011;10218;42.874;25.320;2023-02-21T17:36:18;343.83;;;179.20;;
20114;SDS011;10218;42.874;25.320;2023-02-21T17:38:47;275.10;;;146.20;;
20114;SDS011;10218;42.874;25.320;2023-02-21T17:41:14;279.60;;;154.87;;
20114;SDS011;10218;42.874;25.320;2023-02-21T17:43:42;332.13;;;190.17;;
20114;SDS011;10218;42.874;25.320;2023-02-21T17:46:10;287.77;;;160.40;;